createdAt,value
2024-02-03T00:01:14.990Z,4.23
2024-02-03T00:03:43.463Z,4.22
2024-02-03T00:06:11.793Z,4.40
2024-02-03T00:08:40.186Z,4.40
2024-02-03T00:11:11.889Z,4.52
2024-02-03T00:13:40.235Z,4.54
2024-02-03T00:16:09.201Z,4.67
2024-02-03T00:18:38.839Z,4.70
2024-02-03T00:21:07.793Z,4.66
2024-02-03T00:23:36.303Z,4.50
2024-02-03T00:26:04.785Z,4.91
2024-02-03T00:28:33.009Z,4.74
2024-02-03T00:31:01.884Z,4.77
2024-02-03T00:33:30.284Z,4.74
2024-02-03T00:36:00.147Z,4.77
2024-02-03T00:38:28.569Z,4.97
2024-02-03T00:40:56.850Z,5.01
2024-02-03T00:43:25.619Z,5.01
2024-02-03T00:45:53.968Z,5.02
2024-02-03T00:48:22.401Z,5.20
2024-02-03T00:50:50.997Z,5.02
2024-02-03T00:53:20.881Z,5.11
2024-02-03T00:55:49.139Z,5.02
2024-02-03T00:58:17.793Z,5.17
2024-02-03T01:00:46.094Z,5.11
2024-02-03T01:03:14.511Z,5.11
2024-02-03T01:05:48.701Z,5.26
2024-02-03T01:08:17.091Z,5.25
2024-02-03T01:10:46.785Z,5.28
2024-02-03T01:13:15.915Z,5.34
2024-02-03T01:15:44.392Z,5.19
2024-02-03T01:18:12.731Z,5.27
2024-02-03T01:20:41.169Z,5.33
2024-02-03T01:23:09.404Z,5.18
2024-02-03T01:25:37.817Z,5.47
2024-02-03T01:28:07.851Z,5.42
2024-02-03T01:30:36.241Z,5.38
2024-02-03T01:33:04.800Z,5.39
2024-02-03T01:35:33.319Z,5.36
2024-02-03T01:38:01.710Z,5.34
2024-02-03T01:40:30.431Z,5.08
2024-02-03T01:43:02.387Z,5.42
2024-02-03T01:45:32.333Z,5.18
2024-02-03T01:48:01.110Z,5.38
2024-02-03T01:50:32.507Z,5.37
2024-02-03T01:53:01.393Z,5.37
2024-02-03T01:55:30.880Z,5.35
2024-02-03T01:58:03.829Z,5.44
2024-02-03T02:00:34.115Z,5.44
2024-02-03T02:03:02.725Z,5.23
2024-02-03T02:05:31.560Z,5.34
2024-02-03T02:07:59.806Z,5.42
2024-02-03T02:10:28.383Z,5.42
2024-02-03T02:12:57.211Z,5.38
2024-02-03T02:15:25.576Z,5.49
2024-02-03T02:18:00.757Z,5.45
2024-02-03T02:20:30.905Z,5.47
2024-02-03T02:22:59.146Z,5.40
2024-02-03T02:25:28.330Z,5.43
2024-02-03T02:27:56.677Z,5.54
2024-02-03T02:30:25.195Z,5.44
2024-02-03T02:32:53.583Z,5.47
2024-02-03T02:35:21.888Z,5.54
2024-02-03T02:37:52.582Z,5.47
2024-02-03T02:40:21.412Z,5.46
2024-02-03T02:42:49.950Z,5.52
2024-02-03T02:45:18.663Z,5.49
2024-02-03T02:47:46.976Z,5.28
2024-02-03T02:50:15.343Z,5.60
2024-02-03T02:52:44.607Z,5.51
2024-02-03T02:55:14.780Z,5.49
2024-02-03T02:57:43.188Z,4.98
2024-02-03T03:00:13.326Z,5.42
2024-02-03T03:02:41.847Z,5.49
2024-02-03T03:05:13.024Z,5.38
2024-02-03T03:07:42.342Z,5.63
2024-02-03T03:10:11.124Z,4.96
2024-02-03T03:12:43.222Z,5.42
2024-02-03T03:15:11.834Z,4.54
2024-02-03T03:17:40.424Z,5.22
2024-02-03T03:20:12.631Z,5.41
2024-02-03T03:22:40.912Z,5.41
2024-02-03T03:25:09.644Z,5.42
2024-02-03T03:27:38.916Z,5.42
2024-02-03T03:30:10.809Z,5.46
2024-02-03T03:32:39.306Z,5.40
2024-02-03T03:35:08.931Z,5.42
2024-02-03T03:37:37.514Z,5.48
2024-02-03T03:40:07.924Z,5.44
2024-02-03T03:42:36.209Z,5.51
2024-02-03T03:45:05.264Z,5.41
2024-02-03T03:47:34.896Z,5.47
2024-02-03T03:50:03.360Z,5.38
2024-02-03T03:52:31.622Z,5.33
2024-02-03T03:55:01.726Z,5.48
2024-02-03T03:57:32.408Z,5.70
2024-02-03T04:00:00.820Z,5.52
2024-02-03T04:02:29.031Z,5.58
2024-02-03T04:04:58.763Z,5.49
2024-02-03T04:07:27.055Z,5.45
2024-02-03T04:09:56.829Z,5.39
2024-02-03T04:12:25.321Z,5.46
2024-02-03T04:14:53.987Z,5.47
2024-02-03T04:17:25.409Z,5.47
2024-02-03T04:19:54.450Z,5.51
2024-02-03T04:22:24.232Z,5.36
2024-02-03T04:24:54.882Z,5.22
2024-02-03T04:27:23.370Z,5.42
2024-02-03T04:29:52.057Z,5.39
2024-02-03T04:32:23.517Z,5.41
2024-02-03T04:34:51.837Z,5.40
2024-02-03T04:37:20.167Z,5.43
2024-02-03T04:39:49.859Z,5.44
2024-02-03T04:42:18.235Z,4.87
2024-02-03T04:44:46.556Z,5.78
2024-02-03T04:47:14.978Z,5.43
2024-02-03T04:49:43.287Z,5.37
2024-02-03T04:52:11.729Z,5.18
2024-02-03T04:54:40.078Z,5.34
2024-02-03T04:57:10.221Z,5.33
2024-02-03T04:59:38.440Z,5.27
2024-02-03T05:02:06.842Z,5.41
2024-02-03T05:04:35.153Z,5.37
2024-02-03T05:07:03.852Z,5.13
2024-02-03T05:09:32.206Z,5.27
2024-02-03T05:12:03.057Z,5.45
2024-02-03T05:14:32.760Z,5.33
2024-02-03T05:17:01.125Z,5.31
2024-02-03T05:19:30.185Z,5.35
2024-02-03T05:21:58.589Z,5.28
2024-02-03T05:24:26.816Z,5.32
2024-02-03T05:26:55.572Z,5.14
2024-02-03T05:29:23.789Z,5.11
2024-02-03T05:31:53.521Z,5.14
2024-02-03T05:34:21.803Z,5.29
2024-02-03T05:36:50.160Z,5.06
2024-02-03T05:39:19.277Z,5.13
2024-02-03T05:41:47.625Z,5.33
2024-02-03T05:44:15.948Z,5.02
2024-02-03T05:46:44.284Z,5.10
2024-02-03T05:49:14.224Z,5.02
2024-02-03T05:51:42.604Z,5.11
2024-02-03T05:54:10.998Z,5.14
2024-02-03T05:56:39.849Z,4.94
2024-02-03T06:01:41.342Z,4.99
2024-02-03T06:04:10.217Z,4.96
2024-02-03T06:06:40.593Z,5.03
2024-02-03T06:09:09.592Z,4.98
2024-02-03T06:11:38.195Z,4.87
2024-02-03T06:14:06.453Z,5.02
2024-02-03T06:16:34.956Z,4.84
2024-02-03T06:19:04.726Z,4.93
2024-02-03T06:21:33.302Z,4.57
2024-02-03T06:24:04.250Z,4.92
2024-02-03T06:26:33.072Z,4.99
2024-02-03T06:29:01.505Z,4.93
2024-02-03T06:31:30.808Z,5.04
2024-02-03T06:33:59.224Z,4.81
2024-02-03T06:36:27.571Z,4.85
2024-02-03T06:38:55.891Z,4.74
2024-02-03T06:41:25.659Z,4.88
2024-02-03T06:43:53.918Z,4.83
2024-02-03T06:46:22.167Z,4.98
2024-02-03T06:48:52.256Z,4.89
2024-02-03T06:51:20.846Z,4.88
2024-02-03T06:53:49.211Z,4.78
2024-02-03T06:56:17.592Z,4.98
2024-02-03T06:58:49.324Z,4.91
2024-02-03T07:01:17.686Z,4.93
2024-02-03T07:03:46.441Z,4.80
2024-02-03T07:06:15.241Z,4.90
2024-02-03T07:08:44.550Z,4.83
2024-02-03T07:11:13.831Z,4.87
2024-02-03T07:13:43.255Z,4.66
2024-02-03T07:16:12.898Z,4.67
2024-02-03T07:18:41.460Z,4.70
2024-02-03T07:21:10.041Z,4.72
2024-02-03T07:23:38.362Z,4.56
2024-02-03T07:26:07.091Z,4.94
2024-02-03T07:28:35.580Z,4.73
2024-02-03T07:31:04.132Z,4.53
2024-02-03T07:33:34.112Z,4.67
2024-02-03T07:36:02.596Z,4.80
2024-02-03T07:38:31.456Z,4.72
2024-02-03T07:40:59.713Z,4.76
2024-02-03T07:43:27.971Z,4.79
2024-02-03T07:45:56.445Z,4.70
2024-02-03T07:48:25.197Z,4.67
2024-02-03T07:50:54.865Z,4.79
2024-02-03T07:53:23.408Z,4.69
2024-02-03T07:55:51.797Z,4.66
2024-02-03T07:58:20.612Z,4.02
2024-02-03T08:00:48.870Z,4.52
2024-02-03T08:03:17.484Z,4.61
2024-02-03T08:05:45.871Z,4.61
2024-02-03T08:08:15.596Z,4.39
2024-02-03T08:10:44.307Z,4.45
2024-02-03T08:13:12.666Z,4.61
2024-02-03T08:15:41.161Z,4.49
2024-02-03T08:18:09.505Z,3.88
2024-02-03T08:20:38.095Z,4.52
2024-02-03T08:23:06.607Z,4.59
2024-02-03T08:25:36.424Z,4.50
2024-02-03T08:28:05.462Z,4.53
2024-02-03T08:30:33.922Z,4.55
2024-02-03T08:33:02.358Z,4.51
2024-02-03T08:35:30.824Z,4.47
2024-02-03T08:37:59.198Z,4.36
2024-02-03T08:40:29.568Z,4.52
2024-02-03T08:42:59.595Z,4.47
2024-02-03T08:45:28.157Z,4.51
2024-02-03T08:47:56.579Z,4.56
2024-02-03T08:50:25.236Z,4.41
2024-02-03T08:52:53.516Z,4.39
2024-02-03T08:55:22.246Z,4.54
2024-02-03T08:57:50.616Z,4.50
2024-02-03T09:00:21.290Z,4.43
2024-02-03T09:02:49.626Z,4.46
2024-02-03T09:05:19.600Z,4.53
2024-02-03T09:07:48.186Z,4.51
2024-02-03T09:10:18.674Z,4.51
2024-02-03T09:12:47.153Z,4.54
2024-02-03T09:15:15.629Z,4.54
2024-02-03T09:17:45.623Z,4.56
2024-02-03T09:20:14.074Z,4.64
2024-02-03T09:22:43.313Z,4.58
2024-02-03T09:25:13.587Z,4.64
2024-02-03T09:27:42.456Z,4.57
2024-02-03T09:30:14.402Z,4.81
2024-02-03T09:32:44.148Z,4.61
2024-02-03T09:35:12.644Z,4.39
2024-02-03T09:40:22.080Z,4.59
2024-02-03T09:42:51.253Z,4.64
2024-02-03T09:45:21.356Z,4.01
2024-02-03T09:47:51.696Z,4.71
2024-02-03T09:50:20.261Z,4.80
2024-02-03T09:52:50.372Z,4.73
2024-02-03T09:55:22.503Z,4.86
2024-02-03T09:57:51.677Z,5.00
2024-02-03T10:00:22.297Z,4.99
2024-02-03T10:02:52.214Z,5.01
2024-02-03T10:05:29.062Z,5.10
2024-02-03T10:08:06.248Z,5.08
2024-02-03T10:13:10.045Z,4.99
2024-02-03T10:15:39.232Z,4.57
2024-02-03T10:18:09.660Z,4.66
2024-02-03T10:20:38.787Z,5.23
2024-02-03T10:23:08.436Z,5.28
2024-02-03T10:25:37.100Z,4.99
2024-02-03T10:28:07.710Z,5.14
2024-02-03T10:30:39.566Z,5.29
2024-02-03T10:33:09.602Z,5.23
2024-02-03T10:35:39.508Z,5.26
2024-02-03T10:38:08.742Z,5.11
2024-02-03T10:40:37.478Z,5.23
2024-02-03T10:43:13.646Z,5.30
2024-02-03T10:45:45.934Z,5.24
2024-02-03T10:48:21.126Z,5.16
2024-02-03T10:50:55.226Z,5.22
2024-02-03T10:53:31.857Z,5.16
2024-02-03T10:56:05.711Z,5.16
2024-02-03T10:58:35.236Z,5.17
2024-02-03T11:01:14.417Z,5.21
2024-02-03T11:03:52.359Z,5.35
2024-02-03T11:06:35.030Z,4.74
2024-02-03T11:09:14.704Z,5.52
2024-02-03T11:11:43.686Z,5.64
2024-02-03T11:14:14.545Z,5.39
2024-02-03T11:16:43.590Z,5.52
2024-02-03T11:19:14.546Z,5.53
2024-02-03T11:21:45.077Z,5.60
2024-02-03T11:24:13.488Z,5.60
2024-02-03T11:26:42.039Z,5.56
2024-02-03T11:29:10.651Z,5.64
2024-02-03T11:31:39.713Z,5.71
2024-02-03T11:34:08.220Z,5.73
2024-02-03T11:36:39.019Z,5.61
2024-02-03T11:39:08.226Z,5.69
2024-02-03T11:41:36.943Z,5.78
2024-02-03T11:44:05.823Z,5.79
2024-02-03T11:46:34.188Z,5.76
2024-02-03T11:49:03.867Z,5.67
2024-02-03T11:51:32.299Z,5.68
2024-02-03T11:54:07.718Z,5.69
2024-02-03T11:56:37.667Z,5.66
2024-02-03T11:59:11.843Z,5.72
2024-02-03T12:01:41.479Z,5.74
2024-02-03T12:04:10.170Z,5.76
2024-02-03T12:06:38.797Z,5.69
2024-02-03T12:09:10.038Z,5.60
2024-02-03T12:11:38.572Z,5.95
2024-02-03T12:14:06.923Z,5.64
2024-02-03T12:16:35.783Z,5.77
2024-02-03T12:19:05.546Z,5.63
2024-02-03T12:21:34.111Z,5.63
2024-02-03T12:24:02.816Z,5.76
2024-02-03T12:26:32.557Z,5.57
2024-02-03T12:29:01.814Z,5.59
2024-02-03T12:31:30.307Z,5.52
2024-02-03T12:33:59.026Z,5.77
2024-02-03T12:36:29.557Z,5.85
2024-02-03T12:38:59.985Z,5.75
2024-02-03T12:41:28.460Z,5.89
2024-02-03T12:43:58.374Z,5.89
2024-02-03T12:46:27.219Z,5.79
2024-02-03T12:48:55.892Z,5.89
2024-02-03T12:51:24.236Z,5.66
2024-02-03T12:53:52.521Z,5.79
2024-02-03T12:56:20.789Z,5.82
2024-02-03T12:58:51.232Z,5.50
2024-02-03T13:01:21.669Z,5.72
2024-02-03T13:03:51.941Z,5.81
2024-02-03T13:06:27.046Z,5.76
2024-02-03T13:08:57.453Z,5.84
2024-02-03T13:11:25.939Z,5.91
2024-02-03T13:13:54.188Z,5.78
2024-02-03T13:16:23.982Z,5.83
2024-02-03T13:18:52.356Z,5.94
2024-02-03T13:21:20.648Z,5.86
2024-02-03T13:23:48.997Z,5.78
2024-02-03T13:26:17.298Z,5.83
2024-02-03T13:28:45.611Z,5.91
2024-02-03T13:31:14.017Z,5.81
2024-02-03T13:33:44.523Z,5.95
2024-02-03T13:36:12.960Z,5.98
2024-02-03T13:38:41.761Z,6.01
2024-02-03T13:41:10.278Z,6.01
2024-02-03T13:43:38.826Z,5.85
2024-02-03T13:46:08.499Z,5.90
2024-02-03T13:48:37.016Z,5.81
2024-02-03T13:51:07.487Z,5.87
2024-02-03T13:53:35.764Z,5.58
2024-02-03T13:56:06.147Z,5.91
2024-02-03T13:58:34.768Z,5.45
2024-02-03T14:01:03.152Z,5.97
2024-02-03T14:03:31.742Z,5.95
2024-02-03T14:06:00.145Z,5.97
2024-02-03T14:08:29.844Z,5.30
2024-02-03T14:10:58.383Z,5.98
2024-02-03T14:13:26.638Z,5.86
2024-02-03T14:15:55.562Z,5.96
2024-02-03T14:18:24.316Z,6.09
2024-02-03T14:20:52.905Z,6.07
2024-02-03T14:23:21.277Z,5.92
2024-02-03T14:25:50.909Z,6.06
2024-02-03T14:28:19.368Z,5.98
2024-02-03T14:30:47.757Z,5.95
2024-02-03T14:33:19.577Z,5.99
2024-02-03T14:35:48.359Z,6.05
2024-02-03T14:38:16.731Z,6.06
2024-02-03T14:40:45.177Z,6.03
2024-02-03T14:43:15.216Z,6.04
2024-02-03T14:45:44.075Z,6.21
2024-02-03T14:48:12.664Z,5.97
2024-02-03T14:50:41.035Z,6.14
2024-02-03T14:53:09.671Z,6.06
2024-02-03T14:55:38.327Z,6.03
2024-02-03T14:58:06.583Z,6.01
2024-02-03T15:00:36.261Z,6.22
2024-02-03T15:03:05.275Z,6.29
2024-02-03T15:05:36.263Z,6.08
2024-02-03T15:08:05.947Z,6.05
2024-02-03T15:10:35.361Z,6.17
2024-02-03T15:13:04.756Z,6.21
2024-02-03T15:15:33.180Z,6.20
2024-02-03T15:18:04.444Z,6.31
2024-02-03T15:20:32.952Z,6.16
2024-02-03T15:23:03.038Z,6.24
2024-02-03T15:25:31.361Z,6.26
2024-02-03T15:28:00.405Z,6.29
2024-02-03T15:30:28.890Z,6.32
2024-02-03T15:32:57.533Z,6.22
2024-02-03T15:35:27.233Z,6.23
2024-02-03T15:37:56.196Z,6.18
2024-02-03T15:40:27.248Z,6.28
2024-02-03T15:42:58.601Z,5.64
2024-02-03T15:45:27.699Z,5.75
2024-02-03T15:47:56.209Z,6.15
2024-02-03T15:50:26.653Z,6.21
2024-02-03T15:52:55.075Z,6.09
2024-02-03T15:55:23.945Z,5.64
2024-02-03T15:57:52.429Z,6.00
2024-02-03T16:00:21.436Z,6.16
2024-02-03T16:02:50.215Z,6.09
2024-02-03T16:05:18.716Z,6.10
2024-02-03T16:07:48.550Z,5.11
2024-02-03T16:10:17.307Z,6.01
2024-02-03T16:12:45.795Z,6.06
2024-02-03T16:15:15.830Z,6.10
2024-02-03T16:17:44.862Z,6.01
2024-02-03T16:20:15.977Z,6.11
2024-02-03T16:22:46.559Z,5.25
2024-02-03T16:25:17.394Z,6.08
2024-02-03T16:27:46.834Z,5.90
2024-02-03T16:30:16.818Z,6.11
2024-02-03T16:32:46.273Z,6.10
2024-02-03T16:35:15.070Z,6.00
2024-02-03T16:37:43.493Z,5.90
2024-02-03T16:40:13.530Z,6.19
2024-02-03T16:42:43.335Z,6.03
2024-02-03T16:45:11.888Z,6.06
2024-02-03T16:47:40.814Z,5.74
2024-02-03T16:50:10.062Z,6.15
2024-02-03T16:52:40.080Z,6.13
2024-02-03T16:55:09.332Z,5.95
2024-02-03T16:57:37.681Z,5.97
2024-02-03T17:00:10.638Z,6.16
2024-02-03T17:02:39.607Z,6.18
2024-02-03T17:05:09.038Z,6.33
2024-02-03T17:07:39.082Z,6.30
2024-02-03T17:10:17.655Z,6.15
2024-02-03T17:13:01.733Z,6.20
2024-02-03T17:15:33.056Z,6.22
2024-02-03T17:18:01.478Z,6.23
2024-02-03T17:20:29.865Z,6.13
2024-02-03T17:22:58.185Z,6.25
2024-02-03T17:25:26.514Z,6.26
2024-02-03T17:27:54.907Z,5.73
2024-02-03T17:30:23.237Z,6.24
2024-02-03T17:32:53.169Z,6.16
2024-02-03T17:35:21.447Z,6.37
2024-02-03T17:37:50.363Z,5.75
2024-02-03T17:40:18.805Z,6.35
2024-02-03T17:42:50.406Z,6.29
2024-02-03T17:45:22.463Z,6.27
2024-02-03T17:47:54.258Z,6.20
2024-02-03T17:50:22.500Z,6.12
2024-02-03T17:52:50.896Z,5.86
2024-02-03T17:55:19.153Z,6.27
2024-02-03T17:57:47.762Z,6.20
2024-02-03T18:00:17.121Z,6.21
2024-02-03T18:02:45.796Z,6.23
2024-02-03T18:05:18.881Z,6.40
2024-02-03T18:07:47.289Z,6.17
2024-02-03T18:10:15.875Z,6.32
2024-02-03T18:12:44.495Z,6.09
2024-02-03T18:15:13.037Z,5.10
2024-02-03T18:17:41.320Z,5.92
2024-02-03T18:20:15.973Z,6.16
2024-02-03T18:22:48.259Z,6.17
2024-02-03T18:25:16.531Z,6.15
2024-02-03T18:27:44.995Z,6.06
2024-02-03T18:30:14.790Z,5.92
2024-02-03T18:32:45.330Z,6.16
2024-02-03T18:35:13.869Z,6.10
2024-02-03T18:37:42.256Z,6.14
2024-02-03T18:40:13.110Z,5.50
2024-02-03T18:42:44.052Z,5.89
2024-02-03T18:45:13.696Z,5.62
2024-02-03T18:47:42.353Z,5.92
2024-02-03T18:50:11.406Z,5.94
2024-02-03T18:52:43.721Z,6.03
2024-02-03T18:55:13.374Z,5.98
2024-02-03T18:57:41.715Z,6.03
2024-02-03T19:00:11.832Z,6.11
2024-02-03T19:02:40.077Z,6.03
2024-02-03T19:05:18.468Z,6.12
2024-02-03T19:07:54.659Z,5.95
2024-02-03T19:10:24.319Z,6.14
2024-02-03T19:13:00.907Z,6.00
2024-02-03T19:15:29.864Z,6.09
2024-02-03T19:17:59.375Z,5.52
2024-02-03T19:20:27.819Z,5.99
2024-02-03T19:22:56.158Z,5.76
2024-02-03T19:25:25.737Z,5.86
2024-02-03T19:27:54.570Z,5.82
2024-02-03T19:30:23.404Z,5.84
2024-02-03T19:32:51.818Z,5.82
2024-02-03T19:35:20.853Z,5.16
2024-02-03T19:37:49.082Z,5.78
2024-02-03T19:40:19.694Z,5.67
2024-02-03T19:42:49.417Z,5.72
2024-02-03T19:45:17.865Z,5.79
2024-02-03T19:47:48.589Z,5.85
2024-02-03T19:50:17.361Z,5.91
2024-02-03T19:52:45.675Z,5.17
2024-02-03T19:55:14.240Z,5.46
2024-02-03T19:57:46.672Z,5.86
2024-02-03T20:00:20.001Z,5.81
2024-02-03T20:02:48.386Z,5.82
2024-02-03T20:05:16.981Z,5.93
2024-02-03T20:07:46.277Z,5.94
2024-02-03T20:10:17.366Z,5.69
2024-02-03T20:12:46.022Z,5.80
2024-02-03T20:15:14.907Z,5.83
2024-02-03T20:17:44.612Z,5.81
2024-02-03T20:20:13.973Z,5.80
2024-02-03T20:22:43.223Z,5.81
2024-02-03T20:25:11.750Z,5.68
2024-02-03T20:27:40.358Z,5.83
2024-02-03T20:30:10.082Z,5.76
2024-02-03T20:32:38.527Z,5.83
2024-02-03T20:35:09.113Z,5.84
2024-02-03T20:37:37.638Z,5.71
2024-02-03T20:40:08.556Z,5.59
2024-02-03T20:42:37.027Z,5.74
2024-02-03T20:45:06.770Z,5.61
2024-02-03T20:47:35.345Z,5.68
2024-02-03T20:50:03.868Z,5.76
2024-02-03T20:52:35.825Z,5.21
2024-02-03T20:55:04.254Z,5.69
2024-02-03T20:57:32.995Z,5.94
2024-02-03T21:00:01.539Z,5.81
2024-02-03T21:02:30.889Z,5.80
2024-02-03T21:04:59.709Z,5.86
2024-02-03T21:07:28.244Z,5.85
2024-02-03T21:10:05.474Z,5.86
2024-02-03T21:12:34.407Z,6.06
2024-02-03T21:15:02.855Z,5.86
2024-02-03T21:17:31.893Z,6.01
2024-02-03T21:20:00.566Z,6.07
2024-02-03T21:22:29.282Z,6.13
2024-02-03T21:24:57.711Z,6.15
2024-02-03T21:27:27.630Z,6.14
2024-02-03T21:29:56.169Z,6.20
2024-02-03T21:32:24.730Z,6.21
2024-02-03T21:34:53.145Z,6.27
2024-02-03T21:37:22.936Z,6.24
2024-02-03T21:39:51.361Z,6.17
2024-02-03T21:42:20.220Z,6.18
2024-02-03T21:44:50.726Z,6.29
2024-02-03T21:47:19.038Z,6.37
2024-02-03T21:49:47.474Z,6.14
2024-02-03T21:52:15.799Z,6.30
2024-02-03T21:54:44.510Z,6.23
2024-02-03T21:57:12.934Z,6.36
2024-02-03T21:59:41.196Z,6.32
2024-02-03T22:02:11.053Z,6.23
2024-02-03T22:04:39.494Z,6.37
2024-02-03T22:07:07.953Z,6.31
2024-02-03T22:09:36.443Z,6.29
2024-02-03T22:12:05.133Z,5.75
2024-02-03T22:14:33.784Z,5.66
2024-02-03T22:17:02.705Z,6.22
2024-02-03T22:19:32.570Z,6.28
2024-02-03T22:22:01.005Z,6.26
2024-02-03T22:24:30.794Z,6.30
2024-02-03T22:26:59.089Z,6.29
2024-02-03T22:29:29.678Z,4.81
2024-02-03T22:31:59.073Z,6.25
2024-02-03T22:34:28.079Z,5.98
2024-02-03T22:36:57.842Z,6.19
2024-02-03T22:39:26.210Z,6.21
2024-02-03T22:41:57.332Z,6.32
2024-02-03T22:44:25.720Z,6.16
2024-02-03T22:46:54.117Z,6.03
2024-02-03T22:49:25.141Z,5.61
2024-02-03T22:51:53.693Z,6.20
2024-02-03T22:54:23.748Z,5.92
2024-02-03T22:56:52.591Z,6.24
2024-02-03T22:59:20.827Z,6.28
2024-02-03T23:01:49.255Z,6.17
2024-02-03T23:04:27.787Z,6.19
2024-02-03T23:06:56.386Z,6.12
2024-02-03T23:09:31.337Z,6.05
2024-02-03T23:12:12.193Z,6.04
2024-02-03T23:14:40.397Z,6.03
2024-02-03T23:17:08.879Z,6.06
2024-02-03T23:19:37.301Z,6.03
2024-02-03T23:22:06.252Z,5.99
2024-02-03T23:24:36.033Z,5.90
2024-02-03T23:27:05.097Z,5.99
2024-02-03T23:29:33.605Z,6.48
2024-02-03T23:32:02.171Z,5.84
2024-02-03T23:34:30.734Z,5.06
2024-02-03T23:36:59.202Z,5.70
2024-02-03T23:39:28.241Z,5.71
2024-02-03T23:41:57.886Z,5.58
2024-02-03T23:44:26.365Z,5.53
2024-02-03T23:46:54.719Z,5.76
2024-02-03T23:49:23.226Z,5.79
2024-02-03T23:51:51.590Z,5.66
2024-02-03T23:54:21.797Z,5.64
2024-02-03T23:56:51.059Z,5.66
2024-02-03T23:59:20.838Z,5.59
